createdAt,value
2017-07-06T00:00:42.330Z,18.75
2017-07-06T00:01:42.305Z,18.74
2017-07-06T00:02:42.290Z,18.62
2017-07-06T00:03:42.268Z,18.62
2017-07-06T00:04:42.248Z,18.68
2017-07-06T00:05:42.250Z,18.59
2017-07-06T00:06:42.212Z,18.64
2017-07-06T00:07:42.191Z,18.54
2017-07-06T00:08:41.552Z,18.54
2017-07-06T00:09:42.143Z,18.6
2017-07-06T00:10:42.146Z,18.53
2017-07-06T00:11:41.806Z,18.46
2017-07-06T00:12:41.481Z,18.53
2017-07-06T00:13:42.070Z,18.57
2017-07-06T00:14:42.064Z,18.54
2017-07-06T00:15:41.725Z,18.51
2017-07-06T00:16:42.012Z,18.54
2017-07-06T00:17:41.994Z,18.51
2017-07-06T00:18:41.982Z,18.53
2017-07-06T00:19:41.952Z,18.47
2017-07-06T00:20:41.935Z,18.53
2017-07-06T00:21:41.919Z,18.53
2017-07-06T00:22:41.899Z,18.51
2017-07-06T00:23:41.874Z,18.47
2017-07-06T00:24:41.596Z,18.35
2017-07-06T00:25:41.833Z,18.44
2017-07-06T00:26:41.824Z,18.35
2017-07-06T00:27:41.485Z,18.35
2017-07-06T00:28:41.775Z,18.32
2017-07-06T00:29:41.754Z,18.32
2017-07-06T00:30:41.742Z,18.25
2017-07-06T00:31:41.654Z,18.25
2017-07-06T00:32:41.699Z,18.21
2017-07-06T00:33:41.379Z,18.21
2017-07-06T00:34:41.664Z,18.17
2017-07-06T00:35:41.327Z,18.13
2017-07-06T00:36:41.000Z,18.09
2017-07-06T00:37:41.602Z,18.09
2017-07-06T00:38:41.580Z,18.02
2017-07-06T00:39:41.584Z,18.04
2017-07-06T00:40:41.542Z,18.05
2017-07-06T00:41:41.526Z,18.1
2017-07-06T00:42:41.500Z,18.02
2017-07-06T00:43:41.528Z,18.09
2017-07-06T00:44:41.460Z,17.98
2017-07-06T00:45:41.442Z,18.01
2017-07-06T00:46:41.476Z,17.99
2017-07-06T00:47:41.402Z,17.96
2017-07-06T00:48:41.068Z,17.87
2017-07-06T00:49:41.413Z,17.99
2017-07-06T00:50:41.023Z,18.04
2017-07-06T00:51:41.324Z,17.92
2017-07-06T00:52:41.300Z,18.01
2017-07-06T00:53:41.283Z,17.91
2017-07-06T00:54:41.256Z,18.01
2017-07-06T00:55:41.244Z,17.86
2017-07-06T00:56:41.212Z,17.95
2017-07-06T00:57:41.200Z,17.96
2017-07-06T00:58:41.188Z,17.91
2017-07-06T00:59:41.168Z,17.94
2017-07-06T01:00:41.198Z,17.84
2017-07-06T01:01:41.121Z,17.79
2017-07-06T01:02:41.101Z,17.8
2017-07-06T01:03:41.081Z,17.76
2017-07-06T01:04:41.059Z,17.8
2017-07-06T01:05:41.291Z,17.76
2017-07-06T01:06:41.020Z,17.7
2017-07-06T01:07:41.009Z,17.71
2017-07-06T01:08:40.991Z,17.68
2017-07-06T01:09:40.968Z,17.8
2017-07-06T01:10:40.944Z,17.76
2017-07-06T01:11:40.927Z,17.76
2017-07-06T01:12:40.912Z,17.73
2017-07-06T01:13:40.888Z,17.74
2017-07-06T01:14:40.246Z,17.8
2017-07-06T01:15:40.851Z,17.81
2017-07-06T01:16:40.204Z,17.79
2017-07-06T01:17:40.494Z,17.86
2017-07-06T01:18:40.781Z,17.8
2017-07-06T01:19:40.452Z,17.79
2017-07-06T01:20:40.742Z,17.77
2017-07-06T01:21:40.409Z,17.76
2017-07-06T01:22:40.702Z,17.71
2017-07-06T01:23:40.674Z,17.66
2017-07-06T01:24:40.660Z,17.54
2017-07-06T01:25:40.638Z,17.6
2017-07-06T01:26:40.630Z,17.62
2017-07-06T01:27:40.294Z,17.63
2017-07-06T01:28:40.584Z,17.49
2017-07-06T01:29:40.255Z,17.57
2017-07-06T01:30:40.231Z,17.6
2017-07-06T01:31:40.519Z,17.49
2017-07-06T01:32:40.504Z,17.4
2017-07-06T01:33:40.477Z,17.47
2017-07-06T01:34:40.458Z,17.51
2017-07-06T01:35:40.439Z,17.38
2017-07-06T01:36:40.465Z,17.42
2017-07-06T01:37:40.393Z,17.43
2017-07-06T01:38:40.379Z,17.36
2017-07-06T01:39:40.054Z,17.39
2017-07-06T01:40:40.338Z,17.46
2017-07-06T01:41:40.367Z,17.35
2017-07-06T01:42:40.302Z,17.35
2017-07-06T01:43:40.339Z,17.33
2017-07-06T01:44:40.257Z,17.28
2017-07-06T01:45:40.237Z,17.35
2017-07-06T01:46:40.214Z,17.32
2017-07-06T01:47:40.207Z,17.32
2017-07-06T01:48:40.182Z,17.3
2017-07-06T01:49:40.151Z,17.33
2017-07-06T01:50:40.139Z,17.35
2017-07-06T01:51:40.113Z,17.43
2017-07-06T01:52:40.096Z,17.32
2017-07-06T01:53:39.780Z,17.46
2017-07-06T01:54:40.056Z,17.4
2017-07-06T01:55:40.030Z,17.38
2017-07-06T01:56:40.014Z,17.38
2017-07-06T01:57:39.690Z,17.3
2017-07-06T01:58:39.672Z,17.39
2017-07-06T01:59:39.961Z,17.4
2017-07-06T02:00:39.932Z,17.33
2017-07-06T02:01:39.905Z,17.3
2017-07-06T02:02:39.840Z,17.3
2017-07-06T02:03:39.880Z,17.32
2017-07-06T02:04:39.549Z,17.3
2017-07-06T02:05:39.834Z,17.3
2017-07-06T02:06:39.811Z,17.25
2017-07-06T02:07:39.481Z,17.25
2017-07-06T02:08:39.470Z,17.21
2017-07-06T02:09:39.752Z,17.33
2017-07-06T02:10:39.729Z,17.2
2017-07-06T02:11:39.713Z,17.21
2017-07-06T02:12:39.722Z,17.12
2017-07-06T02:13:39.670Z,17.14
2017-07-06T02:14:39.649Z,17.1
2017-07-06T02:15:39.325Z,17.03
2017-07-06T02:16:39.608Z,17.06
2017-07-06T02:17:39.594Z,17
2017-07-06T02:18:39.570Z,17.07
2017-07-06T02:19:39.549Z,16.99
2017-07-06T02:20:39.534Z,17.06
2017-07-06T02:21:39.508Z,17.07
2017-07-06T02:22:39.489Z,17.1
2017-07-06T02:23:39.476Z,17.15
2017-07-06T02:24:39.450Z,17.12
2017-07-06T02:25:39.432Z,17.09
2017-07-06T02:26:39.413Z,17.06
2017-07-06T02:27:39.394Z,17.02
2017-07-06T02:28:39.367Z,16.98
2017-07-06T02:29:39.351Z,16.99
2017-07-06T02:30:39.323Z,16.92
2017-07-06T02:31:39.304Z,16.92
2017-07-06T02:32:38.981Z,16.98
2017-07-06T02:33:38.961Z,16.88
2017-07-06T02:34:39.254Z,16.91
2017-07-06T02:35:39.232Z,16.92
2017-07-06T02:36:39.202Z,16.95
2017-07-06T02:37:39.188Z,16.8
2017-07-06T02:38:39.173Z,16.87
2017-07-06T02:39:39.157Z,16.75
2017-07-06T02:40:39.121Z,16.88
2017-07-06T02:41:38.798Z,16.88
2017-07-06T02:42:39.090Z,16.87
2017-07-06T02:43:39.060Z,16.85
2017-07-06T02:44:38.734Z,16.92
2017-07-06T02:45:39.029Z,16.78
2017-07-06T02:46:39.008Z,16.87
2017-07-06T02:47:38.981Z,16.88
2017-07-06T02:48:38.970Z,16.91
2017-07-06T02:49:38.939Z,16.91
2017-07-06T02:50:38.918Z,16.78
2017-07-06T02:51:38.898Z,16.88
2017-07-06T02:52:38.885Z,16.88
2017-07-06T02:53:38.556Z,16.84
2017-07-06T02:54:38.852Z,16.8
2017-07-06T02:55:38.817Z,16.88
2017-07-06T02:56:38.494Z,16.92
2017-07-06T02:57:38.829Z,16.95
2017-07-06T02:58:38.451Z,17.05
2017-07-06T02:59:38.743Z,16.99
2017-07-06T03:00:38.406Z,17
2017-07-06T03:01:38.705Z,17
2017-07-06T03:02:38.370Z,16.98
2017-07-06T03:03:38.659Z,16.91
2017-07-06T03:04:38.686Z,16.96
2017-07-06T03:05:38.615Z,16.91
2017-07-06T03:06:38.602Z,16.98
2017-07-06T03:07:38.573Z,16.98
2017-07-06T03:08:38.858Z,16.95
2017-07-06T03:09:38.532Z,16.9
2017-07-06T03:10:38.511Z,16.95
2017-07-06T03:11:38.182Z,16.98
2017-07-06T03:12:38.484Z,16.92
2017-07-06T03:13:38.451Z,16.9
2017-07-06T03:14:38.440Z,16.87
2017-07-06T03:15:38.409Z,16.81
2017-07-06T03:16:38.384Z,16.88
2017-07-06T03:17:38.316Z,16.92
2017-07-06T03:18:38.345Z,16.82
2017-07-06T03:19:38.328Z,16.85
2017-07-06T03:20:38.001Z,16.91
2017-07-06T03:21:37.985Z,16.92
2017-07-06T03:22:37.954Z,16.9
2017-07-06T03:23:37.937Z,16.9
2017-07-06T03:24:38.230Z,16.9
2017-07-06T03:25:38.209Z,16.88
2017-07-06T03:26:38.193Z,16.88
2017-07-06T03:27:38.170Z,16.87
2017-07-06T03:28:38.146Z,16.85
2017-07-06T03:29:38.131Z,16.81
2017-07-06T03:30:38.108Z,16.78
2017-07-06T03:31:38.135Z,16.7
2017-07-06T03:32:38.064Z,16.77
2017-07-06T03:33:38.047Z,16.82
2017-07-06T03:34:38.276Z,16.84
2017-07-06T03:35:37.744Z,16.77
2017-07-06T03:36:37.985Z,16.72
2017-07-06T03:37:37.968Z,16.8
2017-07-06T03:38:37.945Z,16.77
2017-07-06T03:39:37.922Z,16.82
2017-07-06T03:40:37.902Z,16.67
2017-07-06T03:41:37.877Z,16.66
2017-07-06T03:42:37.908Z,16.81
2017-07-06T03:43:37.843Z,16.69
2017-07-06T03:44:37.821Z,16.69
2017-07-06T03:45:37.798Z,16.7
2017-07-06T03:46:37.777Z,16.69
2017-07-06T03:47:37.759Z,16.75
2017-07-06T03:48:37.736Z,16.67
2017-07-06T03:49:37.716Z,16.67
2017-07-06T03:50:37.386Z,16.7
2017-07-06T03:51:37.365Z,16.66
2017-07-06T03:52:37.660Z,16.81
2017-07-06T03:53:37.633Z,16.8
2017-07-06T03:54:37.355Z,16.87
2017-07-06T03:55:37.290Z,16.82
2017-07-06T03:56:37.278Z,16.87
2017-07-06T03:57:37.555Z,16.87
2017-07-06T03:58:37.786Z,16.98
2017-07-06T03:59:37.765Z,16.91
2017-07-06T04:00:37.189Z,17.03
2017-07-06T04:01:37.472Z,16.98
2017-07-06T04:02:37.458Z,17.06
2017-07-06T04:03:37.428Z,17.06
2017-07-06T04:04:37.481Z,17.07
2017-07-06T04:05:37.388Z,17.2
2017-07-06T04:06:37.060Z,17.24
2017-07-06T04:07:37.351Z,17.25
2017-07-06T04:08:37.406Z,17.33
2017-07-06T04:09:37.311Z,17.25
2017-07-06T04:10:37.293Z,17.28
2017-07-06T04:11:37.274Z,17.45
2017-07-06T04:12:37.251Z,17.39
2017-07-06T04:13:37.232Z,17.45
2017-07-06T04:14:37.213Z,17.47
2017-07-06T04:15:37.196Z,17.45
2017-07-06T04:16:36.866Z,17.45
2017-07-06T04:17:37.169Z,17.55
2017-07-06T04:18:37.134Z,17.63
2017-07-06T04:19:37.113Z,17.71
2017-07-06T04:20:37.095Z,17.74
2017-07-06T04:21:37.075Z,17.73
2017-07-06T04:22:37.047Z,17.83
2017-07-06T04:23:36.423Z,17.84
2017-07-06T04:24:37.012Z,18.01
2017-07-06T04:25:36.997Z,18.01
2017-07-06T04:26:36.670Z,18.07
2017-07-06T04:27:36.955Z,18.11
2017-07-06T04:28:36.938Z,18.17
2017-07-06T04:29:36.917Z,18.23
2017-07-06T04:30:36.899Z,18.34
2017-07-06T04:31:36.924Z,18.44
2017-07-06T04:32:36.546Z,18.35
2017-07-06T04:33:36.841Z,18.31
2017-07-06T04:34:36.518Z,18.35
2017-07-06T04:35:36.801Z,18.36
2017-07-06T04:36:36.786Z,18.32
2017-07-06T04:37:36.761Z,18.59
2017-07-06T04:38:36.434Z,18.57
2017-07-06T04:39:36.104Z,18.59
2017-07-06T04:40:36.708Z,18.6
2017-07-06T04:41:36.689Z,18.68
2017-07-06T04:42:36.668Z,18.66
2017-07-06T04:43:36.653Z,18.59
2017-07-06T04:44:36.636Z,18.71
2017-07-06T04:45:36.613Z,18.64
2017-07-06T04:46:36.595Z,18.6
2017-07-06T04:47:36.577Z,18.71
2017-07-06T04:48:36.852Z,18.76
2017-07-06T04:49:36.528Z,18.87
2017-07-06T04:50:36.518Z,18.93
2017-07-06T04:51:36.493Z,18.97
2017-07-06T04:52:36.177Z,19.07
2017-07-06T04:53:36.470Z,19.15
2017-07-06T04:54:36.440Z,19.17
2017-07-06T04:55:36.425Z,19.17
2017-07-06T04:56:36.411Z,19.21
2017-07-06T04:57:36.396Z,19.21
2017-07-06T04:58:36.367Z,19.27
2017-07-06T04:59:36.046Z,19.21
2017-07-06T05:00:36.335Z,19.28
2017-07-06T05:01:36.310Z,19.3
2017-07-06T05:02:36.292Z,19.31
2017-07-06T05:03:36.337Z,19.35
2017-07-06T05:04:36.306Z,19.42
2017-07-06T05:05:36.255Z,19.43
2017-07-06T05:06:36.214Z,19.53
2017-07-06T05:07:36.206Z,19.58
2017-07-06T05:08:36.179Z,19.67
2017-07-06T05:09:35.556Z,19.9
2017-07-06T05:10:35.842Z,19.97
2017-07-06T05:11:36.137Z,20.12
2017-07-06T05:12:36.109Z,20.2
2017-07-06T05:13:36.103Z,20.16
2017-07-06T05:14:36.070Z,20.22
2017-07-06T05:15:36.052Z,20.38
2017-07-06T05:16:36.047Z,20.53
2017-07-06T05:17:35.713Z,20.63
2017-07-06T05:18:35.952Z,20.69
2017-07-06T05:19:35.988Z,20.73
2017-07-06T05:20:35.666Z,20.81
2017-07-06T05:21:35.946Z,20.81
2017-07-06T05:22:35.938Z,20.94
2017-07-06T05:23:35.914Z,20.83
2017-07-06T05:24:35.899Z,20.96
2017-07-06T05:25:35.891Z,20.98
2017-07-06T05:26:35.860Z,21.03
2017-07-06T05:27:50.504Z,21.05
2017-07-06T05:28:35.837Z,21.16
2017-07-06T05:29:35.511Z,21.11
2017-07-06T05:30:35.798Z,21.31
2017-07-06T05:31:35.777Z,21.4
2017-07-06T05:32:35.760Z,21.49
2017-07-06T05:33:35.442Z,21.55
2017-07-06T05:34:35.748Z,21.55
2017-07-06T05:35:35.412Z,21.63
2017-07-06T05:36:35.701Z,21.77
2017-07-06T05:37:35.730Z,21.89
2017-07-06T05:38:35.670Z,21.94
2017-07-06T05:39:35.651Z,21.96
2017-07-06T05:40:35.323Z,21.91
2017-07-06T05:41:35.623Z,22.09
2017-07-06T05:42:35.603Z,22.09
2017-07-06T05:43:35.584Z,22.19
2017-07-06T05:44:35.564Z,22.29
2017-07-06T05:45:35.618Z,22.19
2017-07-06T05:46:35.551Z,22.31
2017-07-06T05:47:35.521Z,22.31
2017-07-06T05:48:35.513Z,22.38
2017-07-06T05:49:35.183Z,22.51
2017-07-06T05:50:35.524Z,22.48
2017-07-06T05:51:35.203Z,22.45
2017-07-06T05:52:35.446Z,22.38
2017-07-06T05:53:35.428Z,22.46
2017-07-06T05:54:35.417Z,22.31
2017-07-06T05:55:35.090Z,22.29
2017-07-06T05:56:35.397Z,22.29
2017-07-06T05:57:35.371Z,22.35
2017-07-06T05:58:35.624Z,22.31
2017-07-06T05:59:35.353Z,22.27
2017-07-06T06:00:35.383Z,22.31
2017-07-06T06:01:35.325Z,22.45
2017-07-06T06:02:35.301Z,22.57
2017-07-06T06:03:35.290Z,22.57
2017-07-06T06:04:34.965Z,22.67
2017-07-06T06:05:35.264Z,22.86
2017-07-06T06:06:35.256Z,22.97
2017-07-06T06:07:35.272Z,23
2017-07-06T06:08:34.908Z,23.11
2017-07-06T06:09:35.200Z,23.15
2017-07-06T06:10:35.180Z,23.16
2017-07-06T06:11:35.171Z,22.99
2017-07-06T06:12:34.843Z,23.14
2017-07-06T06:13:35.192Z,23.15
2017-07-06T06:14:35.121Z,23.18
2017-07-06T06:15:34.810Z,23.35
2017-07-06T06:16:34.785Z,23.42
2017-07-06T06:17:35.086Z,23.63
2017-07-06T06:18:35.062Z,23.87
2017-07-06T06:19:35.056Z,24.02
2017-07-06T06:20:35.042Z,24.08
2017-07-06T06:21:35.027Z,24.19
2017-07-06T06:22:35.018Z,24.12
2017-07-06T06:23:34.996Z,24.14
2017-07-06T06:24:34.987Z,24.26
2017-07-06T06:25:34.980Z,24.48
2017-07-06T06:26:34.958Z,24.45
2017-07-06T06:27:34.635Z,24.27
2017-07-06T06:28:34.628Z,24.3
2017-07-06T06:29:34.934Z,24.27
2017-07-06T06:30:34.907Z,24.31
2017-07-06T06:31:34.894Z,24.48
2017-07-06T06:32:34.885Z,24.64
2017-07-06T06:33:34.871Z,24.77
2017-07-06T06:34:34.545Z,24.98
2017-07-06T06:35:34.847Z,25.04
2017-07-06T06:36:34.574Z,25.08
2017-07-06T06:37:34.822Z,25.16
2017-07-06T06:38:34.814Z,25.41
2017-07-06T06:39:34.793Z,25.45
2017-07-06T06:40:34.475Z,25.51
2017-07-06T06:41:34.788Z,25.74
2017-07-06T06:42:34.819Z,25.76
2017-07-06T06:43:34.751Z,25.76
2017-07-06T06:44:34.736Z,25.75
2017-07-06T06:45:34.727Z,25.82
2017-07-06T06:46:34.404Z,25.9
2017-07-06T06:47:34.395Z,25.75
2017-07-06T06:48:34.697Z,25.9
2017-07-06T06:49:34.752Z,26.03
2017-07-06T06:50:34.667Z,26.06
2017-07-06T06:51:34.662Z,26.23
2017-07-06T06:52:34.654Z,26.16
2017-07-06T06:53:34.648Z,26.21
2017-07-06T06:54:34.622Z,26.42
2017-07-06T06:55:34.642Z,26.51
2017-07-06T06:56:34.613Z,26.61
2017-07-06T06:57:34.611Z,26.76
2017-07-06T06:58:34.581Z,26.93
2017-07-06T06:59:34.578Z,27.11
2017-07-06T07:00:34.554Z,27.03
2017-07-06T07:01:34.557Z,26.94
2017-07-06T07:02:34.231Z,26.93
2017-07-06T07:03:34.227Z,26.71
2017-07-06T07:04:34.514Z,26.72
2017-07-06T07:05:34.509Z,26.88
2017-07-06T07:06:34.753Z,27.09
2017-07-06T07:07:34.490Z,27.13
2017-07-06T07:08:34.479Z,27.12
2017-07-06T07:09:34.478Z,27.2
2017-07-06T07:10:34.517Z,27.08
2017-07-06T07:11:34.453Z,27.27
2017-07-06T07:12:34.174Z,27.48
2017-07-06T07:13:34.446Z,27.72
2017-07-06T07:14:34.428Z,27.88
2017-07-06T07:15:34.418Z,28.15
2017-07-06T07:16:34.100Z,28.09
2017-07-06T07:17:34.396Z,28.03
2017-07-06T07:18:34.383Z,28.01
2017-07-06T07:19:34.434Z,27.96
2017-07-06T07:20:34.419Z,27.96
2017-07-06T07:21:34.046Z,27.84
2017-07-06T07:22:34.604Z,27.98
2017-07-06T07:23:34.332Z,27.77
2017-07-06T07:24:34.325Z,27.59
2017-07-06T07:25:34.325Z,27.5
2017-07-06T07:26:34.313Z,27.61
2017-07-06T07:27:34.298Z,27.5
2017-07-06T07:28:34.374Z,27.48
2017-07-06T07:29:34.288Z,27.48
2017-07-06T07:30:33.968Z,27.55
2017-07-06T07:31:34.269Z,27.45
2017-07-06T07:32:34.320Z,27.34
2017-07-06T07:33:34.250Z,27.4
2017-07-06T07:34:34.296Z,27.49
2017-07-06T07:35:34.236Z,27.9
2017-07-06T07:36:34.222Z,28.06
2017-07-06T07:37:34.215Z,28.33
2017-07-06T07:38:34.207Z,28.65
2017-07-06T07:39:34.246Z,28.57
2017-07-06T07:40:34.191Z,28.46
2017-07-06T07:41:34.180Z,28.38
2017-07-06T07:42:34.165Z,28.24
2017-07-06T07:43:34.162Z,28.25
2017-07-06T07:44:33.843Z,28.33
2017-07-06T07:45:33.834Z,28.3
2017-07-06T07:46:34.131Z,28.36
2017-07-06T07:47:34.130Z,28.52
2017-07-06T07:48:33.813Z,28.61
2017-07-06T07:49:33.805Z,28.58
2017-07-06T07:50:34.156Z,28.58
2017-07-06T07:51:34.094Z,28.61
2017-07-06T07:52:33.780Z,28.77
2017-07-06T07:53:34.085Z,28.89
2017-07-06T07:54:34.073Z,28.92
2017-07-06T07:55:34.060Z,28.98
2017-07-06T07:56:33.743Z,28.95
2017-07-06T07:57:34.049Z,28.88
2017-07-06T07:58:34.047Z,28.85
2017-07-06T07:59:34.034Z,29.03
2017-07-06T08:00:34.032Z,29.14
2017-07-06T08:01:33.710Z,29.05
2017-07-06T08:02:33.751Z,28.98
2017-07-06T08:03:34.008Z,28.94
2017-07-06T08:04:33.682Z,28.8
2017-07-06T08:05:34.036Z,28.62
2017-07-06T08:06:33.982Z,28.79
2017-07-06T08:07:33.667Z,29.02
2017-07-06T08:08:33.959Z,29.07
2017-07-06T08:09:33.647Z,29.08
2017-07-06T08:10:33.951Z,29.18
2017-07-06T08:11:34.003Z,29.37
2017-07-06T08:12:33.986Z,29.47
2017-07-06T08:13:33.922Z,29.55
2017-07-06T08:14:33.924Z,29.58
2017-07-06T08:15:33.604Z,29.78
2017-07-06T08:16:33.905Z,30.04
2017-07-06T08:17:33.591Z,30.11
2017-07-06T08:18:33.939Z,30.08
2017-07-06T08:19:33.631Z,30.1
2017-07-06T08:20:33.873Z,29.85
2017-07-06T08:21:33.556Z,29.82
2017-07-06T08:22:33.858Z,30.11
2017-07-06T08:23:33.540Z,30.38
2017-07-06T08:24:33.845Z,30.67
2017-07-06T08:25:33.840Z,30.72
2017-07-06T08:26:33.883Z,30.72
2017-07-06T08:27:33.833Z,30.96
2017-07-06T08:28:33.816Z,31
2017-07-06T08:29:33.509Z,31.15
2017-07-06T08:30:33.807Z,31.16
2017-07-06T08:31:33.798Z,31.13
2017-07-06T08:32:33.795Z,31.28
2017-07-06T08:33:33.886Z,31.41
2017-07-06T08:34:33.785Z,31.46
2017-07-06T08:35:33.780Z,31.79
2017-07-06T08:36:33.770Z,31.57
2017-07-06T08:37:33.457Z,31.42
2017-07-06T08:38:33.756Z,31.34
2017-07-06T08:39:33.501Z,31.31
2017-07-06T08:40:33.756Z,31.52
2017-07-06T08:41:33.746Z,31.49
2017-07-06T08:42:33.732Z,31.65
2017-07-06T08:43:33.744Z,31.5
2017-07-06T08:44:33.410Z,31.07
2017-07-06T08:45:33.725Z,30.94
2017-07-06T08:46:33.722Z,30.85
2017-07-06T08:47:33.405Z,30.94
2017-07-06T08:48:33.398Z,30.94
2017-07-06T08:49:33.702Z,31.16
2017-07-06T08:50:33.699Z,31.19
2017-07-06T08:51:33.378Z,31.1
2017-07-06T08:52:33.681Z,31.13
2017-07-06T08:53:33.679Z,31.09
2017-07-06T08:54:33.722Z,31.03
2017-07-06T08:55:33.671Z,30.73
2017-07-06T08:56:33.354Z,30.9
2017-07-06T08:57:33.657Z,31.01
2017-07-06T08:58:33.652Z,30.97
2017-07-06T08:59:33.657Z,31.01
2017-07-06T09:00:33.083Z,31.09
2017-07-06T09:01:33.637Z,31.19
2017-07-06T09:02:33.635Z,31.18
2017-07-06T09:03:33.321Z,31.19
2017-07-06T09:04:33.614Z,31.35
2017-07-06T09:05:33.313Z,31.45
2017-07-06T09:06:33.299Z,31.65
2017-07-06T09:07:33.613Z,31.54
2017-07-06T09:08:33.293Z,31.6
2017-07-06T09:09:32.980Z,31.42
2017-07-06T09:10:33.637Z,31.45
2017-07-06T09:11:33.586Z,31.56
2017-07-06T09:12:33.650Z,31.45
2017-07-06T09:13:33.575Z,31.45
2017-07-06T09:14:33.266Z,31.37
2017-07-06T09:15:33.578Z,31.4
2017-07-06T09:16:33.568Z,31.35
2017-07-06T09:17:33.860Z,31.27
2017-07-06T09:18:33.551Z,31.27
2017-07-06T09:19:33.559Z,31.4
2017-07-06T09:20:33.539Z,31.19
2017-07-06T09:21:33.231Z,31.01
2017-07-06T09:22:33.524Z,30.94
2017-07-06T09:23:33.213Z,30.86
2017-07-06T09:24:33.209Z,30.86
2017-07-06T09:25:33.539Z,30.98
2017-07-06T09:26:33.512Z,30.96
2017-07-06T09:27:33.200Z,30.73
2017-07-06T09:28:33.507Z,30.56
2017-07-06T09:29:33.182Z,30.56
2017-07-06T09:30:33.183Z,30.79
2017-07-06T09:31:33.484Z,30.78
2017-07-06T09:32:33.480Z,30.66
2017-07-06T09:33:33.481Z,30.59
2017-07-06T09:34:33.523Z,30.83
2017-07-06T09:35:33.459Z,31.09
2017-07-06T09:36:33.457Z,31.03
2017-07-06T09:37:33.142Z,30.98
2017-07-06T09:38:33.438Z,30.94
2017-07-06T09:39:33.441Z,31.03
2017-07-06T09:40:33.124Z,31.18
2017-07-06T09:41:33.431Z,31.1
2017-07-06T09:42:33.430Z,30.91
2017-07-06T09:43:33.417Z,30.9
2017-07-06T09:44:33.416Z,30.72
2017-07-06T09:45:33.414Z,30.61
2017-07-06T09:46:33.451Z,30.85
2017-07-06T09:47:33.399Z,31
2017-07-06T09:48:33.404Z,31.05
2017-07-06T09:49:33.387Z,31.35
2017-07-06T09:50:33.422Z,31.42
2017-07-06T09:51:33.065Z,31.1
2017-07-06T09:52:33.105Z,31.09
2017-07-06T09:53:33.370Z,30.88
2017-07-06T09:54:33.049Z,30.86
2017-07-06T09:55:33.418Z,30.82
2017-07-06T09:56:33.341Z,30.66
2017-07-06T09:57:33.334Z,30.36
2017-07-06T09:58:33.024Z,30.23
2017-07-06T09:59:33.330Z,30.1
2017-07-06T10:00:33.040Z,30.03
2017-07-06T10:01:33.318Z,29.82
2017-07-06T10:02:33.004Z,29.85
2017-07-06T10:03:33.306Z,30.04
2017-07-06T10:04:32.987Z,30.26
2017-07-06T10:05:33.298Z,30.32
2017-07-06T10:06:33.281Z,30.46
2017-07-06T10:07:33.279Z,30.59
2017-07-06T10:08:33.319Z,30.37
2017-07-06T10:09:33.270Z,30.11
2017-07-06T10:10:32.998Z,29.7
2017-07-06T10:11:33.348Z,29.55
2017-07-06T10:12:33.495Z,29.44
2017-07-06T10:13:33.247Z,29.39
2017-07-06T10:14:32.923Z,29.45
2017-07-06T10:15:33.278Z,29.45
2017-07-06T10:16:32.916Z,29.49
2017-07-06T10:17:33.221Z,29.41
2017-07-06T10:18:32.901Z,29.55
2017-07-06T10:19:33.203Z,29.88
2017-07-06T10:20:33.201Z,30.22
2017-07-06T10:21:33.187Z,30.46
2017-07-06T10:22:32.927Z,30.81
2017-07-06T10:23:33.176Z,30.94
2017-07-06T10:24:33.173Z,30.98
2017-07-06T10:25:33.164Z,31.07
2017-07-06T10:26:33.154Z,31.13
2017-07-06T10:27:32.849Z,31.27
2017-07-06T10:28:33.202Z,31.46
2017-07-06T10:29:33.141Z,31.82
2017-07-06T10:30:33.138Z,31.97
2017-07-06T10:31:33.138Z,32.1
2017-07-06T10:32:32.815Z,32.29
2017-07-06T10:33:33.120Z,32.14
2017-07-06T10:34:33.115Z,31.92
2017-07-06T10:35:33.107Z,31.74
2017-07-06T10:36:33.105Z,31.4
2017-07-06T10:37:33.150Z,31.13
2017-07-06T10:38:32.886Z,30.96
2017-07-06T10:39:33.091Z,30.93
2017-07-06T10:40:32.770Z,31.04
2017-07-06T10:41:33.073Z,30.96
2017-07-06T10:42:32.762Z,31.1
2017-07-06T10:43:32.760Z,31.32
2017-07-06T10:44:32.756Z,31.41
2017-07-06T10:45:33.060Z,31.5
2017-07-06T10:46:33.052Z,31.45
2017-07-06T10:47:33.041Z,31.41
2017-07-06T10:48:33.042Z,31.47
2017-07-06T10:49:33.092Z,31.49
2017-07-06T10:50:33.026Z,31.65
2017-07-06T10:51:33.021Z,31.87
2017-07-06T10:52:33.013Z,31.9
2017-07-06T10:53:33.014Z,31.84
2017-07-06T10:54:33.078Z,31.88
2017-07-06T10:55:32.691Z,31.91
2017-07-06T10:56:33.001Z,31.85
2017-07-06T10:57:33.001Z,31.92
2017-07-06T10:58:32.669Z,32.05
2017-07-06T10:59:32.975Z,32.12
2017-07-06T11:00:32.996Z,32.02
2017-07-06T11:01:33.065Z,31.94
2017-07-06T11:02:32.960Z,31.6
2017-07-06T11:03:33.004Z,31.41
2017-07-06T11:04:32.948Z,31.5
2017-07-06T11:05:32.942Z,31.57
2017-07-06T11:06:32.945Z,31.6
2017-07-06T11:07:33.150Z,31.64
2017-07-06T11:08:32.929Z,31.53
2017-07-06T11:09:32.919Z,31.4
2017-07-06T11:10:32.920Z,31.25
2017-07-06T11:11:32.609Z,31.19
2017-07-06T11:12:32.919Z,31.01
2017-07-06T11:13:32.898Z,30.88
2017-07-06T11:14:32.906Z,30.72
2017-07-06T11:15:32.602Z,30.54
2017-07-06T11:16:32.931Z,30.32
2017-07-06T11:17:32.879Z,30.08
2017-07-06T11:18:32.877Z,29.89
2017-07-06T11:19:32.558Z,29.63
2017-07-06T11:20:32.551Z,29.51
2017-07-06T11:21:32.902Z,29.3
2017-07-06T11:22:32.528Z,29.14
2017-07-06T11:23:32.827Z,29.11
2017-07-06T11:24:32.517Z,28.89
2017-07-06T11:25:32.494Z,28.67
2017-07-06T11:26:32.799Z,28.64
2017-07-06T11:27:32.797Z,28.61
2017-07-06T11:28:32.838Z,28.58
2017-07-06T11:29:32.820Z,28.38
2017-07-06T11:30:32.455Z,28.28
2017-07-06T11:31:32.763Z,27.96
2017-07-06T11:32:32.741Z,27.9
2017-07-06T11:33:32.730Z,27.71
2017-07-06T11:34:32.419Z,27.63
2017-07-06T11:35:32.755Z,27.52
2017-07-06T11:36:32.701Z,27.49
2017-07-06T11:37:32.690Z,27.52
2017-07-06T11:38:32.675Z,27.5
2017-07-06T11:39:32.667Z,27.38
2017-07-06T11:40:32.374Z,27.3
2017-07-06T11:41:32.639Z,27.21
2017-07-06T11:42:32.624Z,27.18
2017-07-06T11:43:32.615Z,27.12
2017-07-06T11:44:32.601Z,27.27
2017-07-06T11:45:32.592Z,27.31
2017-07-06T11:46:32.572Z,27.13
2017-07-06T11:47:32.613Z,27.08
2017-07-06T11:48:32.539Z,27.06
2017-07-06T11:49:32.534Z,26.97
2017-07-06T11:50:32.256Z,26.75
2017-07-06T11:51:32.562Z,26.75
2017-07-06T11:52:32.496Z,26.69
2017-07-06T11:53:32.471Z,26.6
2017-07-06T11:54:32.476Z,26.64
2017-07-06T11:55:32.448Z,26.6
2017-07-06T11:56:32.438Z,26.53
2017-07-06T11:57:32.428Z,26.59
2017-07-06T11:58:32.408Z,26.53
2017-07-06T11:59:32.404Z,26.57
2017-07-06T12:00:32.477Z,26.59
2017-07-06T12:01:32.358Z,26.53
2017-07-06T12:02:32.342Z,26.51
2017-07-06T12:03:32.336Z,26.47
2017-07-06T12:04:32.320Z,26.44
2017-07-06T12:05:32.302Z,26.54
2017-07-06T12:06:32.291Z,26.61
2017-07-06T12:07:32.347Z,26.6
2017-07-06T12:08:32.249Z,26.65
2017-07-06T12:09:31.928Z,26.69
2017-07-06T12:10:31.975Z,26.65
2017-07-06T12:11:32.213Z,26.65
2017-07-06T12:12:32.291Z,26.64
2017-07-06T12:13:32.182Z,26.75
2017-07-06T12:14:32.159Z,26.78
2017-07-06T12:15:32.147Z,26.84
2017-07-06T12:16:31.825Z,26.84
2017-07-06T12:17:32.227Z,26.81
2017-07-06T12:18:32.104Z,26.83
2017-07-06T12:19:32.107Z,26.93
2017-07-06T12:20:32.079Z,26.97
2017-07-06T12:21:32.055Z,26.98
2017-07-06T12:22:32.043Z,26.93
2017-07-06T12:23:32.078Z,26.9
2017-07-06T12:24:32.018Z,26.94
2017-07-06T12:25:32.022Z,26.81
2017-07-06T12:26:31.985Z,26.75
2017-07-06T12:27:31.667Z,26.68
2017-07-06T12:28:31.647Z,26.71
2017-07-06T12:29:31.937Z,26.73
2017-07-06T12:30:31.938Z,26.93
2017-07-06T12:31:31.907Z,26.97
2017-07-06T12:32:31.895Z,27.08
2017-07-06T12:33:31.582Z,27.16
2017-07-06T12:34:31.858Z,27.25
2017-07-06T12:35:31.854Z,27.18
2017-07-06T12:36:31.828Z,27.28
2017-07-06T12:37:31.821Z,27.33
2017-07-06T12:38:31.798Z,27.24
2017-07-06T12:39:31.783Z,27.3
2017-07-06T12:40:31.780Z,27.31
2017-07-06T12:41:31.760Z,27.3
2017-07-06T12:42:31.741Z,27.2
2017-07-06T12:43:31.116Z,27.16
2017-07-06T12:44:31.709Z,27.21
2017-07-06T12:45:31.388Z,27.23
2017-07-06T12:46:31.682Z,27.16
2017-07-06T12:47:31.673Z,27.11
2017-07-06T12:48:31.386Z,27.12
2017-07-06T12:49:31.636Z,27.08
2017-07-06T12:50:31.620Z,27.06
2017-07-06T12:51:31.603Z,27.03
2017-07-06T12:52:31.591Z,27.01
2017-07-06T12:53:31.566Z,26.91
2017-07-06T12:54:31.566Z,26.91
2017-07-06T12:55:31.546Z,26.94